Jason Carter

Olheiro-Chefe - Crystal Palace
4 Abr 2027
Domingo
Processo

Personalidade

Adaptabilidade (6) Ambição (1) Controvérsia (16) Lealdade (10) Pressão (1) Profissionalismo (5) Espírito Esportivo (3) Temperamento (14)

Perfil

Estilo de Treinamento Democrático
Licença Continental C
Determinação 12
Gestão de Pessoas 7
Motivação 13
Disciplina 15
Satisfação no Trabalho
62%
Fadiga
0%
Função Olheiro-Chefe
Salário 16.9K p/s
Contrato 14.03.2030

Desempenho

Comportamento Bom
Eficácia do Treinamento
35%
Desenvolvimento do Jogador
55%
Prevenção de Lesões
60%
Implementação Tática
70%

Eventos Recentes

Avaliou um jogador agora
Participou de uma reunião de recrutamento agora
Recomendou um alvo de transferência agora
Recomendou um alvo de transferência agora
Avaliou um jogador agora
Avaliou um jogador agora
Avaliou um jogador 7d atrás
Avaliou um jogador 7d atrás

Monitorando agora

148
Jogador Clube Status Habilidade Confiança Observado Última observação Último voto
Brayan Gil Baltika Ativo 117 / 128 40% 3 03.04.2027 -
Lewis McCann Fleetwood Town Ativo 100 / 87 40% 1 03.04.2027 -
Mohammad Alsalkhadi Damac Ativo 101 / 91 40% 1 03.04.2027 -
Axel Tape Bayer Leverkusen Ativo 121 / 133 40% 9 02.04.2027 -
Tiago Freitas Benfica Ativo 104 / 124 40% 8 02.04.2027 -
Samuele di Benedetto Charlton Athletic Ativo 103 / 121 40% 1 02.04.2027 -
Yasin Özcan Aston Villa Ativo 111 / 105 40% 3 31.03.2027 -
Matthew Litherland Blackburn Rovers Ativo 105 / 115 40% 3 31.03.2027 -
Alexis Fretes Libertad Ativo 107 / 122 40% 4 30.03.2027 -
Ethan Butera Ajax Ativo 109 / 118 40% 1 30.03.2027 -
Juan Pablo De la Reta Maipú Ativo 117 / 118 40% 3 28.03.2027 -
Chris Rigg Sunderland Ativo 128 / 140 40% 8 28.03.2027 -
Kai Andrews Coventry City Ativo 116 / 130 40% 2 27.03.2027 -
Francisco Chissumba Braga Ativo 126 / 117 40% 1 27.03.2027 -
Riyad Idrissi Cagliari Ativo 127 / 128 40% 4 26.03.2027 -
Valentin Atangana Juventus Ativo 130 / 144 40% 1 26.03.2027 -
Alex Tóth Bournemouth Ativo 121 / 126 40% 2 25.03.2027 -
Camilo Rey Domenech Boca Juniors Ativo 106 / 121 40% 1 25.03.2027 -
Enzo Cardozo Almirante Brown Ativo 115 / 124 40% 1 24.03.2027 -
Thiago Silvero River Plate Ativo 120 / 110 40% 2 23.03.2027 -
Vanja Dragojević Partizan Ativo 117 / 123 40% 2 23.03.2027 -
Aune Heggebø West Bromwich Albion Ativo 126 / 118 40% 2 22.03.2027 -
Lior Kasa Maccabi Haifa Ativo 105 / 112 40% 3 22.03.2027 -
Luciano Gondou CSKA Moscow Ativo 127 / 131 40% 5 22.03.2027 -
Gonçalo Oliveira Benfica Ativo 112 / 105 40% 5 22.03.2027 -
Kane Drummond Oldham Athletic Ativo 93 / 82 40% 1 22.03.2027 -
Patrick Agyemang Derby County Ativo 128 / 129 40% 2 20.03.2027 -
Mateo Fernández Angusht Ativo 81 / 63 40% 1 20.03.2027 -
Ekain Orobengoa Real Sociedad Ativo 104 / 107 40% 1 20.03.2027 -
Jobe Bellingham RB Leipzig Ativo 136 / 134 40% 1 16.03.2027 -
Itumeleng Zungu Free State Stars Ativo 123 / 108 40% 5 15.03.2027 -
Davinchi Getafe Ativo 119 / 117 40% 6 15.03.2027 -
Lennon Miller Udinese Ativo 126 / 143 40% 2 15.03.2027 -
Cemran Dansin Orlando Pirates Ativo 116 / 130 40% 9 14.03.2027 -
Adam Aznou Everton Ativo 116 / 138 40% 3 14.03.2027 -
Obed Vargas Atlético Madrid Ativo 122 / 123 40% 3 13.03.2027 -
Dylan Lawlor Cardiff City Ativo 120 / 121 40% 5 12.03.2027 -
Juan David Arizala Udinese Ativo 119 / 129 40% 3 12.03.2027 -
Honest Ahanor Atalanta Ativo 124 / 124 40% 4 11.03.2027 -
Jens Hjertø-Dahl Hull City Ativo 112 / 139 40% 2 11.03.2027 -
Jofre Torrents Ajax Ativo 114 / 139 40% 3 10.03.2027 -
Elias Baum Eintracht Frankfurt Ativo 128 / 136 40% 3 10.03.2027 -
Jean-Luc Morin Tours Ativo 149 / 137 40% 8 09.03.2027 -
Gonzalo Plata Dinamo Moscow Ativo 126 / 140 40% 1 09.03.2027 -
Tyreece Campbell Charlton Athletic Ativo 122 / 117 40% 1 09.03.2027 -
Dmitry Pestryakov Dinamo Moscow Ativo 109 / 113 40% 3 07.03.2027 -
Luke Baartman Chippa United Ativo 94 / 104 40% 1 07.03.2027 -
Daniel Banjaqui Benfica Ativo 117 / 126 40% 4 05.03.2027 -
Morten Frendrup Genoa Ativo 144 / 136 40% 1 05.03.2027 -
Joe Willock Newcastle United Ativo 135 / 142 40% 1 05.03.2027 -
Danyil Alefirenko Chornomorets Ativo 107 / 98 40% 3 04.03.2027 -
Harrison Armstrong Everton Ativo 122 / 144 40% 2 04.03.2027 -
Hlompho Modiba Black Aces Ativo 80 / 87 40% 1 04.03.2027 -
Tyrese Campbell Sheffield United Ativo 124 / 117 40% 2 03.03.2027 -
Will Lankshear Middlesbrough Ativo 118 / 115 40% 9 03.03.2027 -
Konan N'Dri Lecce Ativo 130 / 119 40% 2 03.03.2027 -
Christ Inao Oulaï Fiorentina Ativo 132 / 148 40% 2 28.02.2027 -
Sabil Hansen Randers Ativo 96 / 106 40% 3 27.02.2027 -
Ezra Mayers West Ham United Ativo 112 / 127 40% 2 27.02.2027 -
Adnan Courtois KV Oostende Ativo 121 / 139 40% 1 25.02.2027 -
Leonardo Barroso Chicago Fire Ativo 121 / 106 40% 1 25.02.2027 -
Diogo Sousa RC Strasbourg Ativo 121 / 113 40% 1 24.02.2027 -
Salvador Blopá Sporting CP Ativo 112 / 121 40% 1 24.02.2027 -
Luther Zwane Platinum Stars Ativo 98 / 97 40% 2 22.02.2027 -
Solly Khunyedi Bloemfontein Celtic Ativo 113 / 88 40% 4 22.02.2027 -
Bohdan Budko AZ Ativo 109 / 114 40% 1 22.02.2027 -
Stephen Amankona Aduana Stars Ativo 92 / 84 40% 1 20.02.2027 -
Dom Ballard Leyton Orient Ativo 117 / 126 40% 1 20.02.2027 -
Žan Vipotnik Swansea City Ativo 122 / 120 40% 16 17.02.2027 -
Mattia Mannini Juve Stabia Ativo 106 / 124 40% 2 17.02.2027 -
Morgan Whittaker Middlesbrough Ativo 126 / 127 40% 1 17.02.2027 -
Simphiwe Selepe Orlando Pirates Ativo 120 / 124 40% 5 12.02.2027 -
Roger Hinojo Espanyol Ativo 109 / 112 40% 1 12.02.2027 -
Harry Leonard Peterborough United Ativo 102 / 102 40% 1 12.02.2027 -
Miguel Figueiredo Benfica Ativo 108 / 128 40% 1 10.02.2027 -
Malik Mothersille Stockport County Ativo 111 / 118 40% 1 10.02.2027 -
Wandile Duba Bidvest Wits Ativo 96 / 105 40% 1 09.02.2027 -
Josh Coburn Millwall Ativo 111 / 118 40% 1 09.02.2027 -
Lucas Jetten Cambuur Ativo 112 / 113 40% 1 06.02.2027 -
Rabby Nzingoula West Bromwich Albion Ativo 123 / 123 40% 2 03.02.2027 -
Ollie Scarles West Ham United Ativo 130 / 124 40% 5 01.02.2027 -
Dayann Methalie Sunderland Ativo 122 / 142 40% 3 31.01.2027 -
Saël Kumbedi VfL Wolfsburg Ativo 130 / 129 40% 1 28.01.2027 -
Leandrinho Sharjah Ativo 99 / 108 40% 2 27.01.2027 -
Vinícius Lira Santos Ativo 124 / 140 40% 2 20.01.2027 -
Matvey Kislyak CSKA Moscow Ativo 138 / 146 40% 1 13.01.2027 -
Ignacio Perruzzi San Lorenzo Ativo 124 / 110 40% 1 11.01.2027 -
Patson Daka Leicester City Relatório pronto 131 / 136 69% 1 07.01.2027 -
Tom Cannon Sheffield United Ativo 137 / 132 40% 22 02.01.2027 -
Mao Hosoya Corinthians Ativo 134 / 135 67% 1 01.01.2027 Aprovar
Thiago Almada River Plate Rejeitado 145 / 146 69% 1 01.01.2027 Rejeitar
Marvin Keller Young Boys Perdido 136 / 137 67% 1 01.01.2027 Aprovar
Akor Adams Venezia Ativo 139 / 141 40% 1 31.12.2026 -
Exequiel Zeballos Boca Juniors Ativo 125 / 150 40% 18 30.12.2026 -
Derry Scherhant SC Freiburg Ativo 123 / 120 40% 13 29.12.2026 -
Igor Serrote Al Jazira Ativo 104 / 110 40% 1 29.12.2026 -
Jair Nottingham Forest Ativo 124 / 126 40% 1 29.12.2026 -
David Romero Parma Ativo 128 / 117 40% 2 27.12.2026 -
Felipe Augusto Zenit Ativo 122 / 126 40% 14 24.12.2026 -
Tyrese Shade Burton Albion Ativo 103 / 94 40% 1 24.12.2026 -
Pablo Felipe West Ham United Ativo 142 / 133 40% 4 22.12.2026 -
Alan Velasco Boca Juniors Ativo 117 / 121 40% 17 21.12.2026 -
Richard Koné Queens Park Rangers Ativo 128 / 118 40% 2 20.12.2026 -
Miro Dinamo Makhachkala Ativo 114 / 111 40% 1 20.12.2026 -
Santiago Mina VfL Wolfsburg Ativo 137 / 152 40% 8 18.12.2026 -
Talles Magno New York City Ativo 142 / 113 40% 13 17.12.2026 -
Rumarn Burrell Queens Park Rangers Ativo 131 / 127 40% 3 14.12.2026 -
Maurits Kjærgaard Red Bull Salzburg Ativo 126 / 130 40% 13 12.12.2026 -
Josh Sargent Toronto FC Ativo 138 / 138 40% 2 12.12.2026 -
Luis Vázquez Birmingham Ativo 129 / 139 40% 1 12.12.2026 -
Kévin Denkey FC Cincinnati Ativo 140 / 129 40% 2 10.12.2026 -
Tadeo Allende Inter Miami CF Ativo 121 / 106 40% 2 08.12.2026 -
Indiana Vassilev Philadelphia Union Ativo 119 / 103 40% 2 08.12.2026 -
Tamerlan Musaev CSKA Moscow Ativo 130 / 126 40% 1 08.12.2026 -
Marezi Portsmouth Ativo 114 / 113 40% 1 03.12.2026 -
Alexander Díaz Deportivo Riestra Ativo 112 / 130 40% 2 02.12.2026 -
Kevin Kelsy Portland Timbers Ativo 118 / 106 40% 1 02.12.2026 -
Tomás Chancalay Minnesota United FC Ativo 116 / 118 40% 1 02.12.2026 -
Jeong Sang-Bin St. Louis CITY SC Ativo 118 / 102 40% 1 27.11.2026 -
Dion Beljo Dinamo Zagreb Ativo 130 / 122 40% 14 25.11.2026 -
Agustín Anello Tottenham Ativo 117 / 133 40% 1 21.11.2026 -
Mohamed-Ali Cho Hull City Ativo 138 / 134 40% 9 20.11.2026 -
João Muniz Sporting CP Ativo 121 / 134 40% 1 11.11.2026 -
Victor Olatunji Real Salt Lake Ativo 116 / 128 40% 1 06.11.2026 -
Musa Barrow Al-Khaleej Ativo 137 / 142 40% 1 02.11.2026 -
Rayan Bournemouth Ativo 132 / 152 40% 6 23.10.2026 -
Aral Şimşir Trabzonspor Ativo 142 / 116 40% 7 21.10.2026 -
Nicolò Tresoldi Club Brugge Ativo 133 / 123 40% 7 16.10.2026 -
Asahi Uenaka Gamba Osaka Ativo 120 / 106 40% 3 13.10.2026 -
Rafiu Durosinmi Racing Genk Ativo 131 / 139 40% 9 11.10.2026 -
Amir Mohammad Razzaghinia Esteghlal Ativo 97 / 121 40% 1 09.10.2026 -
Michy Fellaini KV Oostende Ativo 130 / 135 40% 5 25.09.2026 -
Tobias Bech AGF Ativo 115 / 126 40% 4 06.09.2026 -
Roberto Fernández Braga Ativo 140 / 138 40% 2 02.09.2026 -
Armando Broja Burnley Ativo 131 / 128 40% 2 01.09.2026 -
Louis Munteanu DC United Ativo 116 / 120 40% 1 31.08.2026 -
Thierno Barry Everton Ativo 131 / 143 40% 1 31.08.2026 -
Efraín Álvarez Guadalajara Ativo 117 / 127 40% 2 24.08.2026 -
Pau Víctor Braga Ativo 142 / 141 40% 2 22.08.2026 -
Mbekezeli Mbokazi Chicago Fire Ativo 116 / 134 40% 1 22.08.2026 -
Rafael Luís Benfica Ativo 115 / 132 40% 1 21.08.2026 -
Nacer Tielemans Mouscron Ativo 135 / 141 40% 1 21.08.2026 -
Manfred Ugalde Spartak Moscow Ativo 118 / 132 40% 1 18.08.2026 -
Ricardo Pepi PSV Ativo 143 / 153 40% 1 18.08.2026 -
Kacper Urbański Gornik Zabrze Ativo 109 / 125 40% 1 18.08.2026 -
Craig Forsyth Derby County Ativo 112 / 113 69% 1 17.08.2026 Aprovar
Karim Konaté Red Bull Salzburg Ativo 131 / 134 40% 1 14.08.2026 -
Stefanos Tzimas Brighton Ativo 123 / 143 40% 1 02.08.2026 -